createdAt,value
2018-09-28T00:01:59.008Z,13.30
2018-09-28T00:04:30.119Z,13.30
2018-09-28T00:07:01.109Z,13.20
2018-09-28T00:09:32.225Z,13.20
2018-09-28T00:12:03.213Z,13.20
2018-09-28T00:14:34.135Z,13.20
2018-09-28T00:17:05.139Z,13.20
2018-09-28T00:19:36.172Z,13.20
2018-09-28T00:22:07.160Z,13.10
2018-09-28T00:24:38.144Z,13.00
2018-09-28T00:27:09.192Z,13.10
2018-09-28T00:29:40.216Z,13.00
2018-09-28T00:32:11.339Z,13.00
2018-09-28T00:34:42.610Z,12.90
2018-09-28T00:37:14.884Z,12.90
2018-09-28T00:39:45.917Z,13.00
2018-09-28T00:42:17.065Z,13.00
2018-09-28T00:44:48.111Z,13.00
2018-09-28T00:47:19.058Z,13.00
2018-09-28T00:49:50.024Z,12.90
2018-09-28T00:52:21.034Z,12.90
2018-09-28T00:54:51.976Z,12.90
2018-09-28T00:57:22.945Z,12.80
2018-09-28T00:59:53.954Z,12.70
2018-09-28T01:02:25.032Z,12.60
2018-09-28T01:04:57.888Z,12.40
2018-09-28T01:07:28.928Z,12.50
2018-09-28T01:10:00.011Z,12.50
2018-09-28T01:12:31.067Z,12.50
2018-09-28T01:17:39.420Z,12.50
2018-09-28T01:20:10.792Z,12.50
2018-09-28T01:22:41.980Z,12.50
2018-09-28T01:25:13.390Z,12.40
2018-09-28T01:27:44.611Z,12.40
2018-09-28T01:30:15.921Z,12.20
2018-09-28T01:32:46.876Z,12.00
2018-09-28T01:35:18.059Z,12.00
2018-09-28T01:37:49.011Z,12.00
2018-09-28T01:40:20.096Z,12.10
2018-09-28T01:42:51.121Z,12.20
2018-09-28T01:45:22.199Z,12.20
2018-09-28T01:47:53.501Z,12.20
2018-09-28T01:50:26.208Z,12.30
2018-09-28T01:52:58.113Z,12.30
2018-09-28T01:55:29.277Z,12.30
2018-09-28T01:58:00.454Z,12.30
2018-09-28T02:00:31.651Z,12.20
2018-09-28T02:03:02.801Z,12.20
2018-09-28T02:05:33.898Z,12.20
2018-09-28T02:08:05.004Z,12.20
2018-09-28T02:10:37.335Z,12.20
2018-09-28T02:13:08.528Z,12.20
2018-09-28T02:15:39.799Z,12.20
2018-09-28T02:18:12.571Z,12.30
2018-09-28T02:20:43.668Z,12.20
2018-09-28T02:23:14.731Z,12.30
2018-09-28T02:25:46.816Z,12.20
2018-09-28T02:28:18.024Z,12.20
2018-09-28T02:30:49.792Z,12.20
2018-09-28T02:33:21.505Z,12.20
2018-09-28T02:35:53.055Z,12.20
2018-09-28T02:38:24.577Z,12.10
2018-09-28T02:43:22.425Z,12.00
2018-09-28T02:45:53.533Z,11.90
2018-09-28T02:48:24.764Z,11.90
2018-09-28T02:51:05.779Z,11.90
2018-09-28T02:53:37.228Z,12.00
2018-09-28T02:56:08.469Z,12.00
2018-09-28T02:58:39.591Z,12.00
2018-09-28T03:01:11.055Z,12.10
2018-09-28T03:03:42.220Z,12.10
2018-09-28T03:06:13.406Z,11.90
2018-09-28T03:08:44.526Z,11.80
2018-09-28T03:11:15.612Z,11.70
2018-09-28T03:13:46.813Z,11.70
2018-09-28T03:16:18.014Z,11.60
2018-09-28T03:18:49.175Z,11.60
2018-09-28T03:21:20.317Z,11.60
2018-09-28T03:23:51.619Z,11.60
2018-09-28T03:27:13.320Z,11.70
2018-09-28T03:29:44.668Z,11.90
2018-09-28T03:32:15.823Z,12.00
2018-09-28T03:34:47.044Z,11.90
2018-09-28T03:37:18.127Z,11.80
2018-09-28T03:39:49.326Z,11.60
2018-09-28T03:42:20.560Z,11.50
2018-09-28T03:44:51.733Z,11.70
2018-09-28T03:47:22.975Z,11.80
2018-09-28T03:49:54.152Z,11.80
2018-09-28T03:52:25.352Z,11.80
2018-09-28T03:54:56.379Z,11.90
2018-09-28T03:57:27.634Z,12.00
2018-09-28T03:59:58.664Z,12.00
2018-09-28T04:02:30.074Z,12.00
2018-09-28T04:05:01.287Z,11.90
2018-09-28T04:07:32.425Z,11.90
2018-09-28T04:10:03.609Z,11.90
2018-09-28T04:12:34.677Z,12.00
2018-09-28T04:15:05.942Z,11.90
2018-09-28T04:17:37.125Z,11.90
2018-09-28T04:20:08.217Z,11.90
2018-09-28T04:22:39.239Z,11.90
2018-09-28T04:25:10.536Z,12.00
2018-09-28T04:27:41.618Z,12.00
2018-09-28T04:30:12.634Z,11.90
2018-09-28T04:32:43.787Z,11.90
2018-09-28T04:35:15.035Z,11.80
2018-09-28T04:37:46.202Z,11.80
2018-09-28T04:40:17.208Z,11.90
2018-09-28T04:42:48.353Z,11.90
2018-09-28T04:45:19.553Z,11.70
2018-09-28T04:47:50.558Z,11.60
2018-09-28T04:50:21.580Z,11.50
2018-09-28T04:52:52.615Z,11.40
2018-09-28T04:55:23.619Z,11.40
2018-09-28T04:57:54.705Z,11.40
2018-09-28T05:00:25.832Z,11.30
2018-09-28T05:02:57.055Z,11.20
2018-09-28T05:05:28.190Z,11.30
2018-09-28T05:07:59.460Z,11.40
2018-09-28T05:10:30.769Z,11.60
2018-09-28T05:13:01.960Z,11.70
2018-09-28T05:15:33.078Z,11.70
2018-09-28T05:18:04.464Z,11.80
2018-09-28T05:20:35.464Z,11.70
2018-09-28T05:23:06.648Z,11.80
2018-09-28T05:25:37.850Z,11.80
2018-09-28T05:28:08.980Z,11.80
2018-09-28T05:30:44.974Z,11.80
2018-09-28T05:33:11.407Z,11.80
2018-09-28T05:35:42.509Z,11.90
2018-09-28T05:38:13.574Z,11.80
2018-09-28T05:40:44.730Z,11.90
2018-09-28T05:43:15.991Z,11.80
2018-09-28T05:45:47.221Z,12.00
2018-09-28T05:48:18.358Z,12.00
2018-09-28T05:50:49.432Z,12.00
2018-09-28T05:53:20.488Z,12.00
2018-09-28T05:55:51.622Z,12.00
2018-09-28T05:58:27.265Z,12.00
2018-09-28T06:01:03.287Z,11.90
2018-09-28T06:03:34.647Z,11.90
2018-09-28T06:06:06.000Z,11.90
2018-09-28T06:08:37.339Z,11.90
2018-09-28T06:11:08.556Z,11.90
2018-09-28T06:13:39.716Z,11.90
2018-09-28T06:16:10.734Z,11.90
2018-09-28T06:18:41.858Z,11.90
2018-09-28T06:21:13.005Z,12.00
2018-09-28T06:23:44.048Z,12.00
2018-09-28T06:26:15.289Z,12.10
2018-09-28T06:28:46.455Z,12.00
2018-09-28T06:31:17.555Z,11.90
2018-09-28T06:33:48.635Z,12.00
2018-09-28T06:36:19.999Z,12.00
2018-09-28T06:38:51.056Z,12.00
2018-09-28T06:41:22.164Z,12.00
2018-09-28T06:43:53.244Z,11.90
2018-09-28T06:46:24.334Z,11.90
2018-09-28T06:48:55.444Z,11.90
2018-09-28T06:51:26.695Z,11.90
2018-09-28T06:53:57.835Z,12.00
2018-09-28T06:56:29.101Z,12.00
2018-09-28T06:59:00.290Z,12.00
2018-09-28T07:01:31.364Z,12.00
2018-09-28T07:04:02.396Z,12.00
2018-09-28T07:06:33.474Z,12.00
2018-09-28T07:09:04.935Z,11.90
2018-09-28T07:11:36.024Z,11.80
2018-09-28T07:14:07.324Z,11.70
2018-09-28T07:16:38.407Z,11.60
2018-09-28T07:19:09.984Z,11.50
2018-09-28T07:21:41.002Z,11.40
2018-09-28T07:24:12.100Z,11.40
2018-09-28T07:26:43.163Z,11.50
2018-09-28T07:29:14.376Z,11.60
2018-09-28T07:31:45.455Z,11.70
2018-09-28T07:34:16.627Z,11.90
2018-09-28T07:36:47.867Z,12.00
2018-09-28T07:39:18.975Z,12.00
2018-09-28T07:41:50.004Z,11.90
2018-09-28T07:44:21.116Z,11.90
2018-09-28T07:46:52.157Z,11.90
2018-09-28T07:49:23.184Z,11.80
2018-09-28T07:51:54.273Z,11.80
2018-09-28T07:54:25.308Z,11.70
2018-09-28T07:56:56.339Z,11.80
2018-09-28T07:59:27.394Z,11.70
2018-09-28T08:01:58.427Z,11.60
2018-09-28T08:04:29.520Z,11.60
2018-09-28T08:07:00.619Z,11.50
2018-09-28T08:09:31.661Z,11.40
2018-09-28T08:12:02.669Z,11.30
2018-09-28T08:14:33.708Z,11.30
2018-09-28T08:17:04.966Z,11.40
2018-09-28T08:19:36.034Z,11.40
2018-09-28T08:22:07.410Z,11.40
2018-09-28T08:24:38.618Z,11.40
2018-09-28T08:27:09.731Z,11.40
2018-09-28T08:29:40.755Z,11.40
2018-09-28T08:32:12.034Z,11.40
2018-09-28T08:34:43.206Z,11.30
2018-09-28T08:37:14.276Z,11.30
2018-09-28T08:39:45.350Z,11.30
2018-09-28T08:42:16.347Z,11.20
2018-09-28T08:44:47.572Z,11.20
2018-09-28T08:47:18.721Z,11.10
2018-09-28T08:49:49.789Z,11.10
2018-09-28T08:52:20.822Z,11.00
2018-09-28T08:54:51.861Z,11.00
2018-09-28T08:57:22.856Z,10.90
2018-09-28T08:59:53.909Z,10.90
2018-09-28T09:02:25.007Z,11.00
2018-09-28T09:04:56.276Z,10.90
2018-09-28T09:07:27.305Z,11.00
2018-09-28T09:09:58.430Z,11.00
2018-09-28T09:12:29.496Z,11.00
2018-09-28T09:15:00.543Z,11.00
2018-09-28T09:17:31.658Z,11.00
2018-09-28T09:20:02.744Z,11.00
2018-09-28T09:22:33.714Z,10.90
2018-09-28T09:25:04.691Z,11.00
2018-09-28T09:27:35.769Z,11.00
2018-09-28T09:30:07.189Z,11.10
2018-09-28T09:32:38.188Z,11.20
2018-09-28T09:35:09.255Z,11.30
2018-09-28T09:37:40.587Z,11.20
2018-09-28T09:40:11.644Z,11.30
2018-09-28T09:42:42.952Z,11.40
2018-09-28T09:45:14.167Z,11.30
2018-09-28T09:47:45.572Z,11.40
2018-09-28T09:50:16.626Z,11.40
2018-09-28T09:52:47.814Z,11.30
2018-09-28T09:55:18.975Z,11.20
2018-09-28T09:57:50.113Z,11.10
2018-09-28T10:00:25.755Z,11.10
2018-09-28T10:03:02.120Z,11.10
2018-09-28T10:05:33.147Z,11.00
2018-09-28T10:08:04.167Z,10.90
2018-09-28T10:10:35.199Z,10.80
2018-09-28T10:13:06.208Z,10.80
2018-09-28T10:15:37.467Z,10.70
2018-09-28T10:18:08.542Z,10.50
2018-09-28T10:20:39.603Z,10.50
2018-09-28T10:23:10.571Z,10.60
2018-09-28T10:25:41.747Z,10.70
2018-09-28T10:28:13.233Z,10.60
2018-09-28T10:30:44.258Z,10.60
2018-09-28T10:33:15.223Z,10.50
2018-09-28T10:35:46.455Z,10.50
2018-09-28T10:38:17.757Z,10.50
2018-09-28T10:40:48.845Z,10.50
2018-09-28T10:43:20.007Z,10.50
2018-09-28T10:45:51.278Z,10.50
2018-09-28T10:48:22.431Z,10.50
2018-09-28T10:50:53.461Z,10.50
2018-09-28T10:53:24.585Z,10.30
2018-09-28T10:55:55.620Z,10.30
2018-09-28T10:58:26.803Z,10.40
2018-09-28T11:00:57.948Z,10.50
2018-09-28T11:03:28.860Z,10.60
2018-09-28T11:05:59.891Z,10.70
2018-09-28T11:08:31.010Z,10.80
2018-09-28T11:11:02.104Z,10.90
2018-09-28T11:13:33.124Z,10.90
2018-09-28T11:16:04.154Z,11.00
2018-09-28T11:18:35.291Z,11.00
2018-09-28T11:21:06.329Z,11.10
2018-09-28T11:23:37.368Z,11.20
2018-09-28T11:26:08.511Z,11.30
2018-09-28T11:28:39.715Z,11.40
2018-09-28T11:31:10.767Z,11.40
2018-09-28T11:33:41.836Z,11.50
2018-09-28T11:36:12.967Z,11.50
2018-09-28T11:38:44.180Z,11.60
2018-09-28T11:46:45.068Z,11.70
2018-09-28T11:49:16.407Z,11.70
2018-09-28T11:51:47.814Z,11.70
2018-09-28T11:54:18.995Z,11.80
2018-09-28T11:56:50.220Z,11.80
2018-09-28T11:59:21.698Z,11.80
2018-09-28T12:01:52.891Z,11.80
2018-09-28T12:04:24.181Z,11.90
2018-09-28T12:06:55.480Z,11.90
2018-09-28T12:09:26.720Z,12.00
2018-09-28T12:15:19.340Z,12.10
2018-09-28T12:17:50.630Z,12.20
2018-09-28T12:20:21.718Z,12.20
2018-09-28T12:22:52.853Z,12.40
2018-09-28T12:28:36.604Z,12.60
2018-09-28T12:31:12.096Z,12.80
2018-09-28T12:33:43.359Z,12.90
2018-09-28T12:38:40.246Z,13.20
2018-09-28T12:41:11.724Z,13.30
2018-09-28T12:43:42.784Z,13.30
2018-09-28T12:46:13.890Z,13.40
2018-09-28T12:48:45.169Z,13.50
2018-09-28T12:51:16.468Z,13.60
2018-09-28T12:53:49.925Z,13.70
2018-09-28T12:56:21.038Z,13.80
2018-09-28T12:58:52.306Z,13.90
2018-09-28T13:01:23.551Z,14.20
2018-09-28T13:03:56.171Z,14.30
2018-09-28T13:06:27.625Z,14.50
2018-09-28T13:08:59.045Z,14.80
2018-09-28T13:11:30.129Z,15.10
2018-09-28T13:14:01.223Z,15.50
2018-09-28T13:16:33.172Z,15.70
2018-09-28T13:19:04.403Z,15.80
2018-09-28T13:21:35.478Z,16.00
2018-09-28T13:24:06.583Z,16.10
2018-09-28T13:26:37.721Z,16.50
2018-09-28T13:29:08.968Z,16.60
2018-09-28T13:31:40.095Z,16.70
2018-09-28T13:34:11.407Z,16.80
2018-09-28T13:36:42.534Z,17.10
2018-09-28T13:39:20.375Z,17.20
2018-09-28T13:41:51.636Z,17.20
2018-09-28T13:44:33.537Z,17.20
2018-09-28T13:47:04.493Z,17.30
2018-09-28T13:49:35.459Z,17.30
2018-09-28T13:52:06.600Z,17.30
2018-09-28T13:54:37.669Z,17.30
2018-09-28T13:57:08.784Z,17.40
2018-09-28T13:59:39.880Z,17.40
2018-09-28T14:02:10.958Z,17.30
2018-09-28T14:04:42.170Z,17.20
2018-09-28T14:07:13.441Z,17.20
2018-09-28T14:09:44.459Z,17.30
2018-09-28T14:12:15.617Z,17.40
2018-09-28T14:14:46.758Z,17.50
2018-09-28T14:17:17.859Z,17.50
2018-09-28T14:19:48.920Z,17.60
2018-09-28T14:22:19.972Z,17.80
2018-09-28T14:24:51.322Z,17.80
2018-09-28T14:27:22.388Z,17.80
2018-09-28T14:29:53.421Z,17.80
2018-09-28T14:32:24.537Z,18.00
2018-09-28T14:34:55.655Z,18.00
2018-09-28T14:37:26.767Z,18.10
2018-09-28T14:39:57.867Z,18.10
2018-09-28T14:42:29.039Z,18.00
2018-09-28T14:45:00.326Z,17.90
2018-09-28T14:47:31.492Z,17.90
2018-09-28T14:50:02.958Z,17.80
2018-09-28T14:52:34.254Z,17.80
2018-09-28T14:55:05.634Z,18.00
2018-09-28T14:57:36.732Z,18.00
2018-09-28T15:00:08.993Z,18.10
2018-09-28T15:02:40.226Z,18.00
2018-09-28T15:05:11.452Z,18.10
2018-09-28T15:07:42.733Z,18.40
2018-09-28T15:10:14.197Z,18.70
2018-09-28T15:12:45.474Z,18.80
2018-09-28T15:15:16.773Z,19.00
2018-09-28T15:17:49.970Z,19.10
2018-09-28T15:20:21.083Z,19.10
2018-09-28T15:22:52.244Z,19.40
2018-09-28T15:25:23.440Z,19.70
2018-09-28T15:27:55.223Z,19.80
2018-09-28T15:30:26.638Z,19.70
2018-09-28T15:32:57.947Z,19.60
2018-09-28T15:35:29.048Z,19.50
2018-09-28T15:38:00.173Z,19.70
2018-09-28T15:40:32.016Z,19.80
2018-09-28T15:43:03.339Z,20.00
2018-09-28T15:45:36.799Z,20.40
2018-09-28T15:48:10.503Z,20.40
2018-09-28T15:50:42.667Z,20.50
2018-09-28T15:53:14.233Z,20.80
2018-09-28T15:55:47.573Z,20.80
2018-09-28T15:58:23.642Z,20.80
2018-09-28T16:00:55.255Z,20.60
2018-09-28T16:03:27.287Z,20.50
2018-09-28T16:05:59.952Z,20.70
2018-09-28T16:08:31.043Z,20.90
2018-09-28T16:11:02.382Z,20.90
2018-09-28T16:13:33.642Z,21.10
2018-09-28T16:16:06.556Z,20.80
2018-09-28T16:18:41.497Z,20.60
2018-09-28T16:21:16.479Z,21.00
2018-09-28T16:23:49.288Z,21.30
2018-09-28T16:26:22.607Z,21.30
2018-09-28T16:28:54.640Z,21.10
2018-09-28T16:31:41.777Z,21.30
2018-09-28T16:34:12.896Z,21.50
2018-09-28T16:37:13.171Z,21.50
2018-09-28T16:39:44.412Z,21.30
2018-09-28T16:42:15.582Z,21.40
2018-09-28T16:44:47.475Z,21.70
2018-09-28T16:47:18.950Z,22.00
2018-09-28T16:49:52.545Z,22.10
2018-09-28T16:52:25.270Z,22.00
2018-09-28T16:54:59.969Z,21.50
2018-09-28T16:57:50.290Z,21.10
2018-09-28T17:00:23.478Z,20.90
2018-09-28T17:02:56.540Z,21.70
2018-09-28T17:05:29.879Z,21.40
2018-09-28T17:08:02.218Z,21.40
2018-09-28T17:10:33.508Z,22.00
2018-09-28T17:13:04.916Z,22.00
2018-09-28T17:15:36.208Z,21.50
2018-09-28T17:18:07.447Z,21.80
2018-09-28T17:20:38.773Z,21.60
2018-09-28T17:23:12.825Z,21.20
2018-09-28T17:25:44.106Z,21.00
2018-09-28T17:28:16.104Z,20.80
2018-09-28T17:30:47.852Z,21.10
2018-09-28T17:33:20.196Z,20.90
2018-09-28T17:35:52.547Z,20.80
2018-09-28T17:38:23.955Z,21.30
2018-09-28T17:40:57.743Z,21.70
2018-09-28T17:43:33.136Z,21.20
2018-09-28T17:46:05.470Z,21.00
2018-09-28T17:48:37.296Z,20.70
2018-09-28T17:51:10.412Z,20.70
2018-09-28T17:53:41.596Z,20.70
2018-09-28T17:56:12.735Z,20.50
2018-09-28T17:58:45.476Z,20.30
2018-09-28T18:01:16.649Z,20.40
2018-09-28T18:03:47.863Z,20.50
2018-09-28T18:06:18.899Z,20.60
2018-09-28T18:08:49.961Z,20.80
2018-09-28T18:11:21.012Z,21.00
2018-09-28T18:13:52.155Z,21.90
2018-09-28T18:16:23.211Z,21.60
2018-09-28T18:18:54.331Z,21.40
2018-09-28T18:21:25.827Z,21.30
2018-09-28T18:23:56.903Z,21.60
2018-09-28T18:26:27.867Z,21.80
2018-09-28T18:28:59.207Z,21.60
2018-09-28T18:31:30.268Z,21.60
2018-09-28T18:34:01.322Z,21.80
2018-09-28T18:36:32.428Z,21.70
2018-09-28T18:39:03.655Z,22.10
2018-09-28T18:41:34.759Z,22.20
2018-09-28T18:44:06.047Z,22.20
2018-09-28T18:46:37.112Z,22.70
2018-09-28T18:49:08.244Z,22.50
2018-09-28T18:51:39.299Z,21.90
2018-09-28T18:54:10.394Z,21.70
2018-09-28T18:56:41.446Z,21.80
2018-09-28T18:59:12.514Z,22.50
2018-09-28T19:01:43.735Z,22.90
2018-09-28T19:04:14.891Z,23.10
2018-09-28T19:06:46.080Z,23.30
2018-09-28T19:09:17.183Z,23.10
2018-09-28T19:11:48.480Z,23.10
2018-09-28T19:14:19.779Z,22.90
2018-09-28T19:16:50.887Z,22.40
2018-09-28T19:19:21.902Z,21.90
2018-09-28T19:21:52.892Z,21.50
2018-09-28T19:24:24.012Z,21.10
2018-09-28T19:26:54.994Z,21.00
2018-09-28T19:29:26.015Z,21.20
2018-09-28T19:31:57.230Z,21.10
2018-09-28T19:34:28.586Z,21.10
2018-09-28T19:36:59.719Z,21.40
2018-09-28T19:39:30.925Z,22.30
2018-09-28T19:42:02.212Z,22.50
2018-09-28T19:44:35.071Z,22.50
2018-09-28T19:47:06.406Z,22.50
2018-09-28T19:49:48.116Z,22.50
2018-09-28T19:52:19.200Z,22.20
2018-09-28T19:54:50.338Z,22.10
2018-09-28T19:57:21.452Z,22.40
2018-09-28T19:59:52.697Z,22.50
2018-09-28T20:02:23.736Z,22.50
2018-09-28T20:04:55.424Z,22.20
2018-09-28T20:07:26.583Z,21.80
2018-09-28T20:09:57.755Z,21.60
2018-09-28T20:12:28.925Z,21.40
2018-09-28T20:15:00.038Z,21.10
2018-09-28T20:17:31.364Z,21.40
2018-09-28T20:20:02.704Z,22.00
2018-09-28T20:22:33.942Z,22.30
2018-09-28T20:25:05.010Z,22.60
2018-09-28T20:27:36.425Z,22.40
2018-09-28T20:30:07.655Z,22.60
2018-09-28T20:32:38.836Z,22.50
2018-09-28T20:35:10.161Z,22.50
2018-09-28T20:37:41.436Z,22.40
2018-09-28T20:40:12.649Z,22.20
2018-09-28T20:42:43.733Z,22.00
2018-09-28T20:45:15.809Z,22.00
2018-09-28T20:47:47.252Z,21.90
2018-09-28T20:50:18.748Z,21.80
2018-09-28T20:52:50.189Z,21.60
2018-09-28T20:55:21.306Z,21.50
2018-09-28T20:57:52.413Z,21.60
2018-09-28T21:00:23.658Z,21.00
2018-09-28T21:02:54.889Z,20.40
2018-09-28T21:05:26.019Z,20.00
2018-09-28T21:07:57.110Z,19.70
2018-09-28T21:10:28.208Z,19.50
2018-09-28T21:15:27.163Z,19.60
2018-09-28T21:17:58.301Z,19.60
2018-09-28T21:20:29.417Z,19.40
2018-09-28T21:23:00.335Z,19.20
2018-09-28T21:25:31.259Z,19.00
2018-09-28T21:28:02.295Z,18.90
2018-09-28T21:30:39.570Z,18.80
2018-09-28T21:33:10.599Z,18.90
2018-09-28T21:35:41.804Z,19.20
2018-09-28T21:38:12.956Z,19.80
2018-09-28T21:40:44.019Z,20.00
2018-09-28T21:45:40.685Z,19.80
2018-09-28T21:48:11.672Z,19.60
2018-09-28T21:50:42.564Z,19.30
2018-09-28T21:53:44.056Z,19.00
2018-09-28T21:56:15.043Z,18.80
2018-09-28T21:58:46.029Z,18.70
2018-09-28T22:01:20.237Z,18.70
2018-09-28T22:03:51.904Z,18.70
2018-09-28T22:06:22.848Z,18.60
2018-09-28T22:08:53.819Z,18.50
2018-09-28T22:11:24.841Z,18.40
2018-09-28T22:13:55.836Z,18.30
2018-09-28T22:16:26.844Z,18.30
2018-09-28T22:18:57.882Z,18.20
2018-09-28T22:21:29.011Z,18.10
2018-09-28T22:24:00.143Z,18.00
2018-09-28T22:26:31.192Z,17.90
2018-09-28T22:29:02.122Z,17.80
2018-09-28T22:31:33.208Z,17.70
2018-09-28T22:34:04.126Z,17.60
2018-09-28T22:36:35.181Z,17.60
2018-09-28T22:39:07.585Z,17.50
2018-09-28T22:41:38.592Z,17.50
2018-09-28T22:44:09.869Z,17.40
2018-09-28T22:46:41.066Z,17.40
2018-09-28T22:49:12.107Z,17.30
2018-09-28T22:52:29.969Z,17.30
2018-09-28T22:55:01.286Z,17.20
2018-09-28T22:57:32.451Z,17.20
2018-09-28T23:00:03.443Z,17.10
2018-09-28T23:02:34.426Z,17.00
2018-09-28T23:05:05.545Z,17.00
2018-09-28T23:07:36.489Z,17.00
2018-09-28T23:10:07.731Z,17.00
2018-09-28T23:12:39.285Z,17.00
2018-09-28T23:15:10.475Z,16.90
2018-09-28T23:17:42.790Z,16.90
2018-09-28T23:20:13.957Z,16.90
2018-09-28T23:22:45.156Z,16.80
2018-09-28T23:25:16.325Z,16.80
2018-09-28T23:27:47.713Z,16.90
2018-09-28T23:30:18.856Z,16.90
2018-09-28T23:32:50.058Z,16.90
2018-09-28T23:35:21.200Z,16.90
2018-09-28T23:37:52.251Z,16.80
2018-09-28T23:40:23.450Z,16.90
2018-09-28T23:42:55.138Z,17.00
2018-09-28T23:45:26.815Z,17.10
2018-09-28T23:47:58.480Z,17.10
2018-09-28T23:50:29.587Z,17.10
2018-09-28T23:53:01.146Z,17.10
2018-09-28T23:55:33.052Z,17.00
2018-09-28T23:58:04.060Z,17.00
